createdAt,value
2016-12-24T00:00:46.193Z,92.47
2016-12-24T00:01:46.193Z,92.47
2016-12-24T00:02:45.849Z,92.76
2016-12-24T00:03:46.177Z,92.76
2016-12-24T00:04:46.174Z,92.38
2016-12-24T00:05:46.173Z,92.47
2016-12-24T00:06:45.838Z,92.57
2016-12-24T00:07:46.170Z,91.8
2016-12-24T00:08:46.161Z,92.18
2016-12-24T00:09:45.831Z,92.76
2016-12-24T00:10:46.158Z,92.85
2016-12-24T00:11:46.154Z,92.47
2016-12-24T00:12:45.818Z,92.47
2016-12-24T00:13:46.138Z,91.71
2016-12-24T00:14:46.142Z,92.28
2016-12-24T00:15:46.138Z,92.47
2016-12-24T00:16:45.807Z,92.38
2016-12-24T00:17:46.138Z,91.99
2016-12-24T00:18:46.131Z,92.18
2016-12-24T00:19:45.794Z,92.28
2016-12-24T00:20:46.118Z,91.9
2016-12-24T00:21:46.118Z,92.57
2016-12-24T00:22:46.115Z,91.61
2016-12-24T00:23:45.778Z,92.18
2016-12-24T00:24:46.106Z,92.18
2016-12-24T00:25:46.106Z,91.99
2016-12-24T00:26:45.775Z,91.9
2016-12-24T00:27:46.098Z,91.9
2016-12-24T00:28:46.091Z,91.8
2016-12-24T00:29:45.755Z,92.94
2016-12-24T00:30:46.087Z,91.8
2016-12-24T00:31:45.787Z,91.9
2016-12-24T00:32:46.079Z,91.71
2016-12-24T00:33:45.751Z,92.57
2016-12-24T00:34:46.072Z,92.38
2016-12-24T00:35:46.067Z,92.76
2016-12-24T00:36:46.067Z,91.71
2016-12-24T00:37:46.051Z,92.47
2016-12-24T00:38:46.055Z,92.47
2016-12-24T00:39:46.047Z,92.38
2016-12-24T00:40:46.051Z,91.8
2016-12-24T00:41:46.051Z,92.47
2016-12-24T00:42:46.047Z,92.76
2016-12-24T00:43:45.715Z,92.09
2016-12-24T00:44:46.035Z,92.76
2016-12-24T00:45:46.028Z,92.09
2016-12-24T00:46:45.704Z,92.76
2016-12-24T00:47:46.024Z,92.76
2016-12-24T00:48:46.027Z,92.76
2016-12-24T00:49:46.020Z,91.71
2016-12-24T00:50:46.044Z,92.8
2016-12-24T00:51:46.016Z,92.14
2016-12-24T00:52:46.039Z,92.14
2016-12-24T00:53:45.672Z,92.09
2016-12-24T00:54:45.680Z,92.9
2016-12-24T00:55:45.668Z,92.09
2016-12-24T00:56:45.664Z,92.09
2016-12-24T00:57:45.660Z,91.94
2016-12-24T00:58:45.988Z,91.94
2016-12-24T00:59:45.984Z,92.09
2016-12-24T01:00:45.980Z,92.04
2016-12-24T01:01:45.972Z,92.04
2016-12-24T01:02:45.972Z,92.23
2016-12-24T01:03:45.988Z,92.04
2016-12-24T01:04:45.963Z,91.75
2016-12-24T01:05:45.960Z,91.75
2016-12-24T01:06:45.964Z,91.85
2016-12-24T01:07:45.624Z,92.14
2016-12-24T01:08:45.952Z,91.75
2016-12-24T01:09:45.952Z,92.09
2016-12-24T01:10:45.944Z,92.14
2016-12-24T01:11:45.616Z,91.85
2016-12-24T01:12:45.936Z,91.71
2016-12-24T01:13:45.940Z,91.71
2016-12-24T01:14:45.604Z,91.71
2016-12-24T01:15:45.925Z,92.14
2016-12-24T01:16:45.928Z,92.14
2016-12-24T01:17:45.916Z,91.75
2016-12-24T01:18:45.592Z,92.23
2016-12-24T01:19:45.916Z,92.14
2016-12-24T01:20:45.912Z,92.04
2016-12-24T01:21:45.577Z,92.14
2016-12-24T01:22:45.901Z,92.04
2016-12-24T01:23:45.900Z,91.85
2016-12-24T01:24:45.893Z,91.85
2016-12-24T01:25:45.889Z,91.94
2016-12-24T01:26:45.557Z,91.85
2016-12-24T01:27:45.885Z,92.52
2016-12-24T01:28:45.556Z,91.75
2016-12-24T01:29:45.873Z,92.33
2016-12-24T01:30:45.553Z,92.04
2016-12-24T01:31:46.121Z,91.75
2016-12-24T01:32:45.861Z,92.04
2016-12-24T01:33:45.865Z,92.14
2016-12-24T01:34:45.857Z,92.04
2016-12-24T01:35:45.529Z,92.04
2016-12-24T01:36:45.849Z,91.85
2016-12-24T01:37:45.849Z,92.23
2016-12-24T01:38:45.845Z,92.14
2016-12-24T01:39:45.849Z,92.23
2016-12-24T01:40:45.837Z,91.94
2016-12-24T01:41:45.505Z,92.14
2016-12-24T01:42:45.833Z,92.14
2016-12-24T01:43:45.833Z,92.33
2016-12-24T01:44:45.825Z,92.23
2016-12-24T01:45:45.489Z,92.04
2016-12-24T01:46:45.817Z,91.85
2016-12-24T01:47:45.817Z,92.04
2016-12-24T01:48:45.481Z,91.75
2016-12-24T01:49:45.805Z,92.04
2016-12-24T01:50:45.806Z,92.23
2016-12-24T01:51:45.801Z,92.33
2016-12-24T01:52:45.465Z,91.56
2016-12-24T01:53:45.802Z,92.14
2016-12-24T01:54:45.786Z,92.14
2016-12-24T01:55:45.790Z,92.23
2016-12-24T01:56:45.782Z,92.33
2016-12-24T01:57:45.778Z,91.85
2016-12-24T01:58:45.449Z,92.14
2016-12-24T01:59:45.769Z,91.85
2016-12-24T02:00:45.773Z,92.14
2016-12-24T02:01:45.769Z,92.04
2016-12-24T02:02:45.436Z,92.04
2016-12-24T02:03:45.757Z,92.04
2016-12-24T02:04:45.753Z,92.14
2016-12-24T02:05:45.421Z,91.94
2016-12-24T02:06:45.748Z,92.28
2016-12-24T02:07:45.740Z,92.14
2016-12-24T02:08:45.408Z,92.14
2016-12-24T02:09:45.732Z,92.04
2016-12-24T02:10:45.736Z,91.85
2016-12-24T02:11:45.732Z,92.04
2016-12-24T02:12:45.392Z,92.04
2016-12-24T02:13:45.724Z,92.14
2016-12-24T02:14:45.712Z,91.85
2016-12-24T02:15:45.384Z,91.75
2016-12-24T02:16:45.708Z,92.23
2016-12-24T02:17:45.705Z,92.14
2016-12-24T02:18:45.376Z,91.85
2016-12-24T02:19:45.376Z,92.23
2016-12-24T02:20:45.696Z,91.09
2016-12-24T02:21:45.696Z,91.19
2016-12-24T02:22:45.692Z,91.75
2016-12-24T02:23:45.684Z,91.56
2016-12-24T02:24:45.680Z,91.19
2016-12-24T02:25:45.348Z,91.75
2016-12-24T02:26:45.672Z,91.94
2016-12-24T02:27:45.664Z,91.47
2016-12-24T02:28:45.344Z,91.9
2016-12-24T02:29:45.667Z,91.19
2016-12-24T02:30:45.664Z,91.94
2016-12-24T02:31:45.328Z,91.8
2016-12-24T02:32:45.656Z,91.14
2016-12-24T02:33:45.648Z,91.28
2016-12-24T02:34:45.316Z,91.38
2016-12-24T02:35:45.640Z,91.38
2016-12-24T02:36:45.312Z,91.85
2016-12-24T02:37:45.632Z,91.19
2016-12-24T02:38:45.628Z,91.94
2016-12-24T02:39:45.304Z,91.9
2016-12-24T02:40:45.624Z,92.14
2016-12-24T02:41:45.612Z,91.19
2016-12-24T02:42:45.616Z,91.56
2016-12-24T02:43:45.612Z,91.33
2016-12-24T02:44:45.608Z,91.33
2016-12-24T02:45:45.608Z,91.56
2016-12-24T02:46:45.596Z,91.52
2016-12-24T02:47:45.596Z,91.33
2016-12-24T02:48:45.596Z,91.28
2016-12-24T02:49:45.588Z,91.42
2016-12-24T02:50:45.264Z,91.24
2016-12-24T02:51:45.588Z,91.52
2016-12-24T02:52:45.584Z,91.24
2016-12-24T02:53:45.577Z,91.71
2016-12-24T02:54:45.596Z,91.42
2016-12-24T02:55:45.569Z,91.75
2016-12-24T02:56:45.565Z,91.24
2016-12-24T02:57:45.565Z,91.71
2016-12-24T02:58:45.229Z,91.24
2016-12-24T02:59:45.229Z,91.33
2016-12-24T03:00:45.553Z,91.8
2016-12-24T03:01:45.217Z,91.71
2016-12-24T03:02:45.541Z,91.9
2016-12-24T03:03:45.541Z,91.8
2016-12-24T03:04:45.533Z,91.8
2016-12-24T03:05:45.537Z,91.33
2016-12-24T03:06:45.533Z,91.8
2016-12-24T03:07:45.201Z,91.71
2016-12-24T03:08:45.521Z,91.33
2016-12-24T03:09:45.525Z,91.42
2016-12-24T03:10:45.189Z,91.71
2016-12-24T03:11:45.517Z,91.33
2016-12-24T03:12:45.510Z,91.24
2016-12-24T03:13:45.182Z,91.33
2016-12-24T03:14:45.505Z,91.52
2016-12-24T03:15:45.494Z,91.33
2016-12-24T03:16:45.170Z,91.52
2016-12-24T03:17:45.489Z,91.05
2016-12-24T03:18:45.162Z,91.05
2016-12-24T03:19:45.486Z,91.33
2016-12-24T03:20:45.485Z,91.9
2016-12-24T03:21:45.474Z,92.09
2016-12-24T03:22:45.474Z,91.14
2016-12-24T03:23:45.466Z,91.33
2016-12-24T03:24:45.142Z,91.42
2016-12-24T03:25:45.470Z,91.42
2016-12-24T03:26:45.458Z,91.71
2016-12-24T03:27:45.122Z,91.33
2016-12-24T03:28:45.450Z,91.8
2016-12-24T03:29:45.451Z,91.8
2016-12-24T03:30:45.118Z,91.33
2016-12-24T03:31:45.454Z,91.52
2016-12-24T03:32:45.442Z,91.99
2016-12-24T03:33:45.430Z,92.09
2016-12-24T03:34:45.443Z,91.99
2016-12-24T03:35:45.423Z,92.09
2016-12-24T03:36:45.427Z,91.99
2016-12-24T03:37:45.422Z,91.9
2016-12-24T03:38:45.090Z,91.71
2016-12-24T03:39:45.418Z,91.8
2016-12-24T03:40:45.406Z,91.99
2016-12-24T03:41:45.083Z,91.8
2016-12-24T03:42:45.403Z,92.09
2016-12-24T03:43:45.076Z,91.99
2016-12-24T03:44:45.395Z,91.99
2016-12-24T03:45:45.387Z,92.28
2016-12-24T03:46:45.063Z,91.9
2016-12-24T03:47:45.387Z,91.99
2016-12-24T03:48:45.379Z,92.09
2016-12-24T03:49:45.375Z,91.99
2016-12-24T03:50:45.390Z,92.09
2016-12-24T03:51:45.371Z,92.18
2016-12-24T03:52:45.043Z,91.8
2016-12-24T03:53:45.367Z,91.99
2016-12-24T03:54:45.031Z,92.09
2016-12-24T03:55:45.356Z,92.94
2016-12-24T03:56:45.356Z,92.66
2016-12-24T03:57:45.347Z,91.71
2016-12-24T03:58:45.344Z,92.76
2016-12-24T03:59:45.012Z,92.94
2016-12-24T04:00:45.328Z,92.09
2016-12-24T04:01:45.332Z,91.8
2016-12-24T04:02:45.332Z,92.18
2016-12-24T04:03:45.324Z,92.09
2016-12-24T04:04:45.328Z,92.76
2016-12-24T04:05:45.323Z,91.9
2016-12-24T04:06:45.312Z,91.71
2016-12-24T04:07:44.984Z,91.71
2016-12-24T04:08:45.312Z,91.9
2016-12-24T04:09:45.308Z,91.99
2016-12-24T04:10:44.977Z,91.99
2016-12-24T04:11:45.292Z,92.52
2016-12-24T04:12:45.289Z,92.57
2016-12-24T04:13:45.292Z,92.38
2016-12-24T04:14:44.957Z,92.23
2016-12-24T04:15:45.285Z,92.23
2016-12-24T04:16:45.277Z,92.61
2016-12-24T04:17:44.952Z,92.42
2016-12-24T04:18:45.269Z,92.42
2016-12-24T04:19:45.269Z,92.42
2016-12-24T04:20:45.269Z,92.8
2016-12-24T04:21:45.265Z,92.33
2016-12-24T04:22:44.933Z,92.71
2016-12-24T04:23:45.253Z,92.23
2016-12-24T04:24:44.925Z,92.61
2016-12-24T04:25:45.245Z,92.33
2016-12-24T04:26:44.913Z,92.71
2016-12-24T04:27:45.245Z,92.42
2016-12-24T04:28:45.233Z,92.61
2016-12-24T04:29:44.906Z,92.23
2016-12-24T04:30:45.233Z,92.42
2016-12-24T04:31:44.902Z,92.9
2016-12-24T04:32:45.214Z,92.71
2016-12-24T04:33:45.213Z,92.52
2016-12-24T04:34:45.218Z,92.52
2016-12-24T04:35:45.206Z,92.61
2016-12-24T04:36:45.206Z,92.71
2016-12-24T04:37:45.203Z,92.71
2016-12-24T04:38:44.866Z,92.61
2016-12-24T04:39:45.190Z,92.61
2016-12-24T04:40:45.194Z,92.23
2016-12-24T04:41:44.862Z,92.61
2016-12-24T04:42:45.190Z,92.8
2016-12-24T04:43:44.858Z,92.71
2016-12-24T04:44:45.174Z,93.13
2016-12-24T04:45:44.846Z,93.51
2016-12-24T04:46:45.170Z,93.61
2016-12-24T04:47:45.175Z,92.94
2016-12-24T04:48:45.162Z,93.7
2016-12-24T04:49:45.162Z,93.23
2016-12-24T04:50:45.147Z,93.7
2016-12-24T04:51:45.147Z,93.7
2016-12-24T04:52:44.815Z,93.7
2016-12-24T04:53:45.143Z,93.51
2016-12-24T04:54:44.815Z,93.42
2016-12-24T04:55:45.139Z,94.08
2016-12-24T04:56:45.135Z,93.51
2016-12-24T04:57:45.139Z,93.8
2016-12-24T04:58:45.131Z,93.61
2016-12-24T04:59:44.795Z,93.7
2016-12-24T05:00:45.119Z,94.46
2016-12-24T05:01:44.783Z,93.99
2016-12-24T05:02:45.111Z,94.27
2016-12-24T05:03:45.107Z,94.08
2016-12-24T05:04:45.108Z,93.99
2016-12-24T05:05:44.771Z,93.89
2016-12-24T05:06:45.104Z,94.84
2016-12-24T05:07:45.096Z,94.27
2016-12-24T05:08:45.092Z,94.04
2016-12-24T05:09:45.087Z,94.18
2016-12-24T05:10:45.080Z,94.7
2016-12-24T05:11:45.084Z,94.89
2016-12-24T05:12:45.076Z,94.23
2016-12-24T05:13:45.068Z,94.23
2016-12-24T05:14:45.064Z,94.51
2016-12-24T05:15:45.069Z,94.7
2016-12-24T05:16:45.057Z,94.42
2016-12-24T05:17:45.060Z,94.6
2016-12-24T05:18:45.049Z,94.79
2016-12-24T05:19:45.053Z,94.13
2016-12-24T05:20:45.041Z,94.32
2016-12-24T05:21:45.037Z,93.75
2016-12-24T05:22:45.041Z,94.23
2016-12-24T05:23:45.033Z,94.13
2016-12-24T05:24:45.033Z,94.23
2016-12-24T05:25:45.033Z,93.65
2016-12-24T05:26:45.025Z,93.46
2016-12-24T05:27:45.017Z,93.75
2016-12-24T05:28:45.021Z,92.9
2016-12-24T05:29:45.013Z,93.94
2016-12-24T05:30:45.013Z,93.46
2016-12-24T05:31:45.005Z,93.27
2016-12-24T05:32:45.001Z,93.08
2016-12-24T05:33:44.673Z,93.08
2016-12-24T05:34:44.993Z,92.99
2016-12-24T05:35:44.665Z,92.71
2016-12-24T05:36:44.989Z,92.33
2016-12-24T05:37:44.970Z,92.99
2016-12-24T05:38:44.974Z,92.9
2016-12-24T05:39:44.650Z,92.61
2016-12-24T05:40:44.978Z,92
2016-12-24T05:41:44.966Z,92.66
2016-12-24T05:42:44.966Z,92.47
2016-12-24T05:43:44.957Z,92.47
2016-12-24T05:44:44.958Z,92.85
2016-12-24T05:45:44.954Z,92.66
2016-12-24T05:46:44.950Z,92.09
2016-12-24T05:47:44.622Z,92.76
2016-12-24T05:48:44.614Z,92.94
2016-12-24T05:49:44.937Z,92.47
2016-12-24T05:50:44.606Z,93.32
2016-12-24T05:51:44.934Z,93.32
2016-12-24T05:52:44.931Z,93.7
2016-12-24T05:53:44.926Z,92.76
2016-12-24T05:54:44.918Z,93.61
2016-12-24T05:55:44.918Z,93.37
2016-12-24T05:56:44.911Z,93.42
2016-12-24T05:57:44.575Z,93.51
2016-12-24T05:58:44.904Z,93.37
2016-12-24T05:59:44.567Z,94.32
2016-12-24T06:00:44.891Z,93.75
2016-12-24T06:01:44.892Z,94.18
2016-12-24T06:02:44.563Z,94.08
2016-12-24T06:03:44.879Z,94.04
2016-12-24T06:04:44.551Z,94.08
2016-12-24T06:05:44.895Z,94.23
2016-12-24T06:06:44.543Z,94.23
2016-12-24T06:07:44.876Z,93.94
2016-12-24T06:08:44.867Z,93.75
2016-12-24T06:09:44.867Z,93.84
2016-12-24T06:10:44.864Z,94.23
2016-12-24T06:11:44.531Z,94.7
2016-12-24T06:12:44.855Z,94.7
2016-12-24T06:13:44.843Z,94.51
2016-12-24T06:14:44.840Z,94.42
2016-12-24T06:15:44.840Z,94.79
2016-12-24T06:16:44.508Z,94.42
2016-12-24T06:17:44.832Z,94.89
2016-12-24T06:18:44.852Z,94.98
2016-12-24T06:19:44.496Z,94.79
2016-12-24T06:20:44.824Z,94.79
2016-12-24T06:21:44.487Z,94.89
2016-12-24T06:22:44.812Z,94.89
2016-12-24T06:23:44.812Z,94.23
2016-12-24T06:24:44.476Z,95.07
2016-12-24T06:25:44.804Z,94.98
2016-12-24T06:26:44.792Z,95.31
2016-12-24T06:27:44.468Z,94.74
2016-12-24T06:28:44.795Z,95.5
2016-12-24T06:29:44.784Z,95.74
2016-12-24T06:30:44.780Z,94.79
2016-12-24T06:31:44.780Z,94.65
2016-12-24T06:32:44.440Z,95.41
2016-12-24T06:33:44.765Z,95.6
2016-12-24T06:34:44.769Z,94.84
2016-12-24T06:35:44.428Z,94.56
2016-12-24T06:36:44.754Z,95.79
2016-12-24T06:37:44.752Z,95.5
2016-12-24T06:38:44.424Z,94.93
2016-12-24T06:39:44.753Z,94.74
2016-12-24T06:40:44.745Z,95.5
2016-12-24T06:41:44.745Z,95.98
2016-12-24T06:42:44.741Z,95.79
2016-12-24T06:43:44.733Z,95.6
2016-12-24T06:44:44.397Z,96.36
2016-12-24T06:45:44.725Z,95.69
2016-12-24T06:46:44.724Z,94.79
2016-12-24T06:47:44.389Z,95.07
2016-12-24T06:48:44.713Z,95.26
2016-12-24T06:49:44.706Z,95.65
2016-12-24T06:50:44.381Z,94.89
2016-12-24T06:51:44.705Z,95.84
2016-12-24T06:52:44.693Z,95.17
2016-12-24T06:53:44.697Z,95.55
2016-12-24T06:54:44.693Z,95.17
2016-12-24T06:55:44.685Z,95.55
2016-12-24T06:56:44.685Z,95.65
2016-12-24T06:57:44.681Z,94.7
2016-12-24T06:58:44.669Z,94.7
2016-12-24T06:59:44.669Z,95.26
2016-12-24T07:00:44.341Z,94.89
2016-12-24T07:01:44.665Z,94.79
2016-12-24T07:02:44.666Z,94.89
2016-12-24T07:03:44.326Z,94.51
2016-12-24T07:04:44.645Z,94.7
2016-12-24T07:05:44.650Z,95.07
2016-12-24T07:06:44.310Z,94.42
2016-12-24T07:07:44.638Z,94.04
2016-12-24T07:08:44.306Z,93.94
2016-12-24T07:09:44.302Z,94.04
2016-12-24T07:10:44.622Z,94.32
2016-12-24T07:11:44.626Z,93.56
2016-12-24T07:12:44.622Z,93.84
2016-12-24T07:13:44.618Z,94.32
2016-12-24T07:14:44.610Z,93.84
2016-12-24T07:15:44.610Z,93.65
2016-12-24T07:16:44.610Z,94.04
2016-12-24T07:17:44.598Z,93.94
2016-12-24T07:18:44.589Z,93.56
2016-12-24T07:19:44.590Z,93.46
2016-12-24T07:20:44.606Z,93.18
2016-12-24T07:21:44.590Z,93.18
2016-12-24T07:22:44.578Z,93.65
2016-12-24T07:23:44.574Z,93.56
2016-12-24T07:24:44.574Z,93.08
2016-12-24T07:25:44.238Z,93.65
2016-12-24T07:26:44.238Z,93.46
2016-12-24T07:27:44.562Z,92.9
2016-12-24T07:28:44.554Z,92.9
2016-12-24T07:29:44.546Z,92.8
2016-12-24T07:30:44.546Z,92.8
2016-12-24T07:31:44.222Z,92.61
2016-12-24T07:32:44.538Z,92.61
2016-12-24T07:33:44.539Z,92.9
2016-12-24T07:34:44.530Z,92.61
2016-12-24T07:35:44.526Z,92.9
2016-12-24T07:36:44.514Z,92.99
2016-12-24T07:37:44.518Z,92.42
2016-12-24T07:38:44.522Z,92.23
2016-12-24T07:39:44.515Z,92.23
2016-12-24T07:40:44.506Z,92.42
2016-12-24T07:41:44.503Z,92.52
2016-12-24T07:42:44.175Z,92.33
2016-12-24T07:43:44.526Z,92.9
2016-12-24T07:44:44.167Z,92.33
2016-12-24T07:45:44.491Z,92.23
2016-12-24T07:46:44.491Z,92.42
2016-12-24T07:47:44.483Z,92.33
2016-12-24T07:48:44.479Z,92.14
2016-12-24T07:49:44.478Z,93.08
2016-12-24T07:50:44.471Z,92.23
2016-12-24T07:51:44.471Z,91.95
2016-12-24T07:52:44.143Z,91.99
2016-12-24T07:53:44.467Z,92.04
2016-12-24T07:54:44.455Z,91.71
2016-12-24T07:55:44.447Z,92.09
2016-12-24T07:56:44.451Z,91.71
2016-12-24T07:57:44.111Z,91.8
2016-12-24T07:58:44.439Z,91.99
2016-12-24T07:59:44.439Z,91.71
2016-12-24T08:00:44.435Z,91.8
2016-12-24T08:01:44.427Z,91.52
2016-12-24T08:02:44.095Z,91.33
2016-12-24T08:03:44.423Z,92.09
2016-12-24T08:04:44.087Z,91.33
2016-12-24T08:05:44.415Z,91.14
2016-12-24T08:06:44.409Z,91.42
2016-12-24T08:07:44.403Z,91.8
2016-12-24T08:08:44.395Z,91.33
2016-12-24T08:09:44.403Z,91.14
2016-12-24T08:10:44.063Z,91.33
2016-12-24T08:11:44.391Z,91.61
2016-12-24T08:12:44.387Z,91.33
2016-12-24T08:13:44.379Z,90.95
2016-12-24T08:14:44.383Z,91.14
2016-12-24T08:15:44.379Z,91.14
2016-12-24T08:16:44.047Z,91.33
2016-12-24T08:17:44.371Z,91.05
2016-12-24T08:18:44.363Z,90.76
2016-12-24T08:19:44.363Z,90.95
2016-12-24T08:20:44.359Z,90.86
2016-12-24T08:21:44.351Z,90.95
2016-12-24T08:22:44.347Z,90.76
2016-12-24T08:23:44.351Z,90.48
2016-12-24T08:24:44.015Z,90.67
2016-12-24T08:25:44.346Z,90.57
2016-12-24T08:26:44.007Z,90.48
2016-12-24T08:27:44.004Z,90.86
2016-12-24T08:28:44.331Z,90.29
2016-12-24T08:29:44.324Z,90.76
2016-12-24T08:30:44.323Z,90.76
2016-12-24T08:31:43.992Z,90.48
2016-12-24T08:32:44.315Z,89.95
2016-12-24T08:33:43.983Z,90.14
2016-12-24T08:34:44.307Z,90.24
2016-12-24T08:35:44.300Z,89.48
2016-12-24T08:36:43.971Z,89.76
2016-12-24T08:37:44.168Z,89.39
2016-12-24T08:38:44.296Z,89.67
2016-12-24T08:39:44.292Z,89.76
2016-12-24T08:40:44.283Z,89
2016-12-24T08:41:44.276Z,88.95
2016-12-24T08:42:43.948Z,88.29
2016-12-24T08:43:44.272Z,88.76
2016-12-24T08:44:44.268Z,88.48
2016-12-24T08:45:44.264Z,87.82
2016-12-24T08:46:44.268Z,88.01
2016-12-24T08:47:43.933Z,87.24
2016-12-24T08:48:44.261Z,87.01
2016-12-24T08:49:44.248Z,87.01
2016-12-24T08:50:44.252Z,87.1
2016-12-24T08:51:44.248Z,86.53
2016-12-24T08:52:44.248Z,86.34
2016-12-24T08:53:43.909Z,86.43
2016-12-24T08:54:44.240Z,86
2016-12-24T08:55:44.236Z,85.43
2016-12-24T08:56:44.228Z,85.43
2016-12-24T08:57:44.224Z,84.86
2016-12-24T08:58:44.224Z,84.2
2016-12-24T08:59:43.888Z,83.82
2016-12-24T09:00:44.212Z,83.34
2016-12-24T09:01:44.216Z,82.68
2016-12-24T09:02:44.213Z,82.39
2016-12-24T09:03:44.208Z,82.91
2016-12-24T09:04:44.200Z,81.96
2016-12-24T09:05:44.196Z,81.2
2016-12-24T09:06:43.860Z,80.82
2016-12-24T09:07:43.864Z,80.44
2016-12-24T09:08:43.865Z,80.15
2016-12-24T09:09:44.181Z,79.86
2016-12-24T09:10:44.184Z,80.15
2016-12-24T09:11:44.177Z,80.05
2016-12-24T09:12:44.177Z,80.15
2016-12-24T09:13:44.173Z,79.63
2016-12-24T09:14:44.173Z,79.63
2016-12-24T09:15:44.165Z,79.16
2016-12-24T09:16:44.164Z,79.44
2016-12-24T09:17:44.161Z,79.73
2016-12-24T09:18:44.153Z,79.16
2016-12-24T09:19:44.157Z,79.73
2016-12-24T09:20:44.145Z,79.44
2016-12-24T09:21:44.145Z,80.11
2016-12-24T09:22:44.141Z,78.97
2016-12-24T09:23:44.133Z,79.25
2016-12-24T09:24:44.137Z,79.35
2016-12-24T09:25:44.125Z,79.63
2016-12-24T09:26:44.125Z,79.25
2016-12-24T09:27:44.129Z,79.63
2016-12-24T09:28:44.125Z,79.92
2016-12-24T09:29:44.121Z,79.44
2016-12-24T09:30:44.113Z,79.88
2016-12-24T09:31:44.113Z,79.6
2016-12-24T09:32:44.113Z,79.69
2016-12-24T09:33:44.101Z,79.88
2016-12-24T09:34:44.105Z,79.97
2016-12-24T09:35:44.102Z,79.88
2016-12-24T09:36:44.098Z,79.79
2016-12-24T09:37:44.093Z,79.97
2016-12-24T09:38:44.093Z,79.5
2016-12-24T09:39:44.085Z,80.3
2016-12-24T09:40:44.086Z,79.73
2016-12-24T09:41:43.754Z,79.73
2016-12-24T09:42:44.082Z,79.73
2016-12-24T09:43:44.074Z,79.63
2016-12-24T09:44:43.746Z,79.25
2016-12-24T09:45:43.742Z,78.97
2016-12-24T09:46:43.738Z,79.39
2016-12-24T09:47:44.057Z,78.63
2016-12-24T09:48:44.058Z,78.53
2016-12-24T09:49:44.058Z,78.34
2016-12-24T09:50:44.062Z,78.16
2016-12-24T09:51:43.726Z,77.3
2016-12-24T09:52:43.714Z,77.34
2016-12-24T09:53:44.046Z,76.96
2016-12-24T09:54:44.045Z,76.48
2016-12-24T09:55:44.038Z,76.1
2016-12-24T09:56:43.706Z,75.72
2016-12-24T09:57:43.702Z,75.76
2016-12-24T09:58:44.034Z,75.19
2016-12-24T09:59:43.702Z,74.62
2016-12-24T10:00:43.690Z,74.37
2016-12-24T10:01:44.018Z,73.8
2016-12-24T10:02:43.686Z,72.37
2016-12-24T10:03:44.018Z,72.46
2016-12-24T10:04:44.010Z,72.17
2016-12-24T10:05:43.678Z,72.27
2016-12-24T10:06:44.035Z,71.42
2016-12-24T10:07:44.003Z,71.61
2016-12-24T10:08:43.667Z,71.51
2016-12-24T10:09:44.001Z,71.03
2016-12-24T10:10:43.670Z,70.84
2016-12-24T10:11:43.994Z,70.75
2016-12-24T10:12:43.986Z,70.65
2016-12-24T10:13:43.664Z,70.21
2016-12-24T10:14:43.987Z,69.74
2016-12-24T10:15:43.986Z,68.69
2016-12-24T10:16:43.655Z,68.98
2016-12-24T10:17:43.979Z,68.78
2016-12-24T10:18:43.971Z,68.56
2016-12-24T10:19:43.975Z,68.65
2016-12-24T10:20:43.639Z,68.37
2016-12-24T10:21:43.967Z,68.46
2016-12-24T10:22:43.631Z,68.84
2016-12-24T10:23:43.959Z,68.84
2016-12-24T10:24:43.627Z,68.62
2016-12-24T10:25:43.959Z,69.85
2016-12-24T10:26:43.619Z,69.48
2016-12-24T10:27:43.947Z,69.76
2016-12-24T10:28:43.615Z,69.67
2016-12-24T10:29:43.947Z,70.33
2016-12-24T10:30:43.940Z,70.14
2016-12-24T10:31:43.939Z,70.49
2016-12-24T10:32:43.931Z,70.68
2016-12-24T10:33:43.935Z,70.58
2016-12-24T10:34:43.927Z,70.77
2016-12-24T10:35:43.603Z,71.34
2016-12-24T10:36:43.927Z,71.15
2016-12-24T10:37:43.919Z,71.34
2016-12-24T10:38:43.920Z,71.82
2016-12-24T10:39:43.587Z,71.82
2016-12-24T10:40:43.907Z,71.5
2016-12-24T10:41:43.912Z,71.91
2016-12-24T10:42:43.911Z,72.07
2016-12-24T10:43:43.899Z,72.07
2016-12-24T10:44:43.904Z,72.64
2016-12-24T10:45:43.899Z,72.45
2016-12-24T10:46:43.899Z,72.26
2016-12-24T10:47:43.897Z,72.92
2016-12-24T10:48:43.887Z,72.74
2016-12-24T10:49:43.915Z,73.4
2016-12-24T10:50:43.555Z,73.02
2016-12-24T10:51:43.879Z,73.4
2016-12-24T10:52:43.876Z,72.74
2016-12-24T10:53:43.879Z,73.02
2016-12-24T10:54:43.874Z,73.02
2016-12-24T10:55:43.876Z,73.4
2016-12-24T10:56:43.872Z,72.92
2016-12-24T10:57:43.867Z,73.11
2016-12-24T10:58:43.868Z,73.21
2016-12-24T10:59:43.863Z,73.02
2016-12-24T11:00:43.851Z,73.11
2016-12-24T11:01:43.523Z,72.92
2016-12-24T11:02:43.856Z,73.11
2016-12-24T11:03:43.520Z,73.4
2016-12-24T11:04:43.840Z,73.49
2016-12-24T11:05:43.844Z,73.36
2016-12-24T11:06:43.839Z,73.27
2016-12-24T11:07:43.836Z,73.18
2016-12-24T11:08:43.832Z,73.18
2016-12-24T11:09:43.828Z,73.65
2016-12-24T11:10:43.832Z,73.55
2016-12-24T11:11:43.827Z,73.65
2016-12-24T11:12:43.828Z,73.65
2016-12-24T11:13:43.496Z,73.65
2016-12-24T11:14:43.820Z,73.74
2016-12-24T11:15:43.818Z,73.84
2016-12-24T11:16:43.816Z,73.08
2016-12-24T11:17:43.807Z,73.49
2016-12-24T11:18:43.808Z,73.3
2016-12-24T11:19:43.476Z,73.49
2016-12-24T11:20:43.804Z,73.49
2016-12-24T11:21:43.796Z,73.11
2016-12-24T11:22:43.797Z,72.92
2016-12-24T11:23:43.796Z,72.92
2016-12-24T11:24:43.464Z,73.3
2016-12-24T11:25:43.785Z,72.64
2016-12-24T11:26:43.788Z,72.92
2016-12-24T11:27:43.456Z,72.92
2016-12-24T11:28:43.776Z,72.74
2016-12-24T11:29:43.448Z,72.74
2016-12-24T11:30:43.444Z,72.92
2016-12-24T11:31:43.768Z,72.55
2016-12-24T11:32:43.768Z,72.45
2016-12-24T11:33:43.764Z,72.07
2016-12-24T11:34:43.440Z,72.55
2016-12-24T11:35:43.760Z,72.16
2016-12-24T11:36:43.753Z,72.55
2016-12-24T11:37:43.748Z,72.16
2016-12-24T11:38:43.420Z,72.07
2016-12-24T11:39:43.744Z,72.07
2016-12-24T11:40:43.740Z,73.11
2016-12-24T11:41:43.412Z,72.26
2016-12-24T11:42:43.764Z,72.26
2016-12-24T11:43:43.408Z,72.35
2016-12-24T11:44:43.399Z,72.92
2016-12-24T11:45:43.736Z,72.83
2016-12-24T11:46:43.727Z,72.92
2016-12-24T11:47:43.392Z,72.74
2016-12-24T11:48:43.715Z,72.26
2016-12-24T11:49:43.719Z,72.26
2016-12-24T11:50:43.380Z,72.35
2016-12-24T11:51:43.711Z,72.26
2016-12-24T11:52:43.707Z,71.78
2016-12-24T11:53:43.699Z,72.01
2016-12-24T11:54:43.695Z,71.97
2016-12-24T11:55:43.367Z,71.72
2016-12-24T11:56:43.699Z,71.53
2016-12-24T11:57:43.691Z,71.53
2016-12-24T11:58:43.359Z,71.63
2016-12-24T11:59:43.687Z,71.53
2016-12-24T12:00:43.683Z,71.53
2016-12-24T12:01:43.683Z,71.72
2016-12-24T12:02:43.679Z,71.53
2016-12-24T12:03:43.351Z,71.53
2016-12-24T12:04:43.671Z,71.82
2016-12-24T12:05:43.671Z,71.72
2016-12-24T12:06:43.667Z,71.82
2016-12-24T12:07:43.667Z,72.11
2016-12-24T12:08:43.663Z,72.11
2016-12-24T12:09:43.663Z,72.11
2016-12-24T12:10:43.659Z,72.11
2016-12-24T12:11:43.655Z,72.01
2016-12-24T12:12:43.651Z,72.3
2016-12-24T12:13:43.667Z,72.11
2016-12-24T12:14:43.647Z,71.91
2016-12-24T12:15:43.641Z,72.01
2016-12-24T12:16:43.635Z,72.11
2016-12-24T12:17:43.639Z,72.01
2016-12-24T12:18:43.651Z,72.11
2016-12-24T12:19:43.639Z,72.11
2016-12-24T12:20:43.623Z,72.11
2016-12-24T12:21:43.627Z,72.11
2016-12-24T12:22:43.627Z,72.2
2016-12-24T12:23:43.287Z,72.11
2016-12-24T12:24:43.623Z,72.01
2016-12-24T12:25:43.615Z,71.91
2016-12-24T12:26:43.611Z,72.16
2016-12-24T12:27:43.275Z,72.49
2016-12-24T12:28:43.611Z,72.3
2016-12-24T12:29:43.604Z,72.11
2016-12-24T12:30:43.599Z,71.82
2016-12-24T12:31:43.260Z,71.82
2016-12-24T12:32:43.595Z,72.01
2016-12-24T12:33:43.256Z,72.01
2016-12-24T12:34:43.595Z,71.91
2016-12-24T12:35:43.588Z,72.11
2016-12-24T12:36:43.252Z,71.88
2016-12-24T12:37:43.584Z,72.01
2016-12-24T12:38:43.576Z,72.2
2016-12-24T12:39:43.576Z,72.3
2016-12-24T12:40:43.572Z,72.3
2016-12-24T12:41:43.568Z,72.2
2016-12-24T12:42:43.564Z,72.3
2016-12-24T12:43:43.564Z,72.49
2016-12-24T12:44:43.556Z,72.3
2016-12-24T12:45:43.552Z,71.88
2016-12-24T12:46:43.229Z,71.82
2016-12-24T12:47:43.548Z,71.91
2016-12-24T12:48:43.549Z,72.45
2016-12-24T12:49:43.216Z,72.35
2016-12-24T12:50:43.541Z,72.16
2016-12-24T12:51:43.533Z,72.45
2016-12-24T12:52:43.201Z,72.45
2016-12-24T12:53:43.537Z,72.16
2016-12-24T12:54:43.197Z,72.35
2016-12-24T12:55:43.525Z,72.26